Time;durP1;ratioP1;P1;durP2;ratioP2;P2;SDS_P1;SDS_P2;PMS_P1;PMS_P2;Temp;Humidity;BMP_temperature;BMP_pressure;BME280_temperature;BME280_humidity;BME280_pressure;Samples;Min_cycle;Max_cycle;Signal;HPM_P1;HPM_P2
2022/12/29 00:01:34;;;;;;;3.93;2.70;;;;;;;13.47;46.72;98341.47;7060463;28;20228;-78
2022/12/29 00:04:55;;;;;;;2.90;2.60;;;;;;;13.69;46.41;98347.13;7036018;28;20277;-76
2022/12/29 00:08:16;;;;;;;3.97;2.97;;;;;;;13.61;46.54;98347.47;7027022;28;20234;-76
2022/12/29 00:11:38;;;;;;;4.17;3.20;;;;;;;13.61;46.71;98347.47;7026720;28;20597;-76
2022/12/29 00:18:40;;;;;;;3.40;3.07;;;;;;;13.27;47.57;98342.88;7031305;28;20626;-76
2022/12/29 00:36:41;;;;;;;5.87;3.30;;;;;;;12.82;49.26;98325.41;7059576;28;20182;-76
2022/12/29 00:44:06;;;;;;;4.43;3.77;;;;;;;12.93;49.40;98320.03;7020662;28;20192;-76
2022/12/29 00:47:27;;;;;;;5.17;3.20;;;;;;;12.73;49.51;98313.25;7060066;28;20349;-76
2022/12/29 00:50:48;;;;;;;5.60;3.63;;;;;;;12.78;49.76;98319.66;7046908;28;20285;-76
2022/12/29 00:54:11;;;;;;;4.07;3.13;;;;;;;12.97;49.40;98323.97;7031988;28;20225;-76
2022/12/29 00:57:32;;;;;;;3.30;3.00;;;;;;;12.86;49.65;98311.19;7031950;28;20253;-78
2022/12/29 01:01:01;;;;;;;3.60;3.30;;;;;;;12.64;50.30;98309.25;7032616;28;20624;-78
2022/12/29 01:04:25;;;;;;;3.53;3.20;;;;;;;12.79;49.90;98310.47;7031571;28;20295;-78
2022/12/29 01:07:47;;;;;;;7.87;3.20;;;;;;;12.68;50.35;98307.75;7031647;28;20602;-78
2022/12/29 01:11:10;;;;;;;3.20;2.73;;;;;;;12.71;50.23;98309.97;7031958;28;20315;-78
2022/12/29 01:14:32;;;;;;;7.33;3.77;;;;;;;12.42;51.37;98317.06;7031769;28;20705;-78
2022/12/29 01:17:53;;;;;;;3.93;3.07;;;;;;;12.56;50.65;98304.19;7031000;28;20272;-78
2022/12/29 01:21:15;;;;;;;5.50;3.00;;;;;;;12.95;49.76;98325.22;7030849;28;20752;-78
2022/12/29 01:24:36;;;;;;;2.93;2.63;;;;;;;12.71;49.89;98318.09;7030785;28;20208;-78
2022/12/29 01:27:59;;;;;;;3.37;2.93;;;;;;;13.00;49.93;98326.22;7029683;28;20291;-77
2022/12/29 01:31:21;;;;;;;3.27;2.97;;;;;;;13.22;48.83;98327.28;7030103;28;20373;-76
2022/12/29 01:34:42;;;;;;;3.17;2.87;;;;;;;13.35;49.11;98320.84;7030682;28;20746;-76
2022/12/29 01:38:04;;;;;;;5.33;3.77;;;;;;;13.00;49.88;98334.34;7030369;28;20209;-76
2022/12/29 01:41:26;;;;;;;3.50;3.10;;;;;;;13.00;49.49;98318.09;7030067;28;20361;-76
2022/12/29 01:44:52;;;;;;;4.50;2.73;;;;;;;12.79;50.03;98323.16;7029887;28;20887;-76
2022/12/29 01:48:14;;;;;;;2.90;2.70;;;;;;;13.08;49.33;98311.50;7029957;28;20873;-76
2022/12/29 01:51:38;;;;;;;3.03;2.83;;;;;;;13.29;49.55;98316.38;7037896;28;20216;-76
2022/12/29 01:55:00;;;;;;;4.90;3.23;;;;;;;13.18;49.76;98317.19;7057448;27;20228;-77
2022/12/29 01:58:24;;;;;;;2.83;2.63;;;;;;;13.00;50.14;98309.16;7055975;28;20204;-76
2022/12/29 02:01:47;;;;;;;3.27;2.90;;;;;;;12.83;50.62;98327.91;7034111;28;20295;-76
2022/12/29 02:05:12;;;;;;;4.20;3.10;;;;;;;13.04;50.43;98330.09;7057516;28;20291;-77
2022/12/29 02:08:33;;;;;;;4.20;2.80;;;;;;;13.08;50.02;98316.91;7057493;28;20249;-76
2022/12/29 02:11:55;;;;;;;3.47;3.10;;;;;;;13.13;50.01;98322.47;7057767;28;20311;-76
2022/12/29 02:15:17;;;;;;;3.57;3.10;;;;;;;13.00;50.40;98296.44;7056753;28;20253;-76
2022/12/29 02:18:48;;;;;;;4.53;2.80;;;;;;;12.61;51.63;98304.28;7050378;28;20303;-76
2022/12/29 02:22:19;;;;;;;4.53;3.03;;;;;;;13.23;50.31;98301.06;7027689;28;20288;-75
2022/12/29 02:25:54;;;;;;;3.83;3.00;;;;;;;13.05;50.65;98284.91;7028789;28;20342;-76
2022/12/29 02:29:41;;;;;;;8.53;3.13;;;;;;;13.44;49.79;98295.88;7028904;28;20644;-76
2022/12/29 02:33:13;;;;;;;3.77;2.80;;;;;;;13.32;49.66;98295.06;7028662;28;20205;-76
2022/12/29 02:36:41;;;;;;;5.23;2.50;;;;;;;13.33;48.82;98291.28;7028018;28;20892;-76
2022/12/29 02:40:07;;;;;;;2.80;2.60;;;;;;;13.49;47.98;98252.69;7028943;28;20229;-77
2022/12/29 02:43:34;;;;;;;4.27;2.40;;;;;;;13.86;47.67;98293.88;7028521;28;20595;-77
2022/12/29 02:47:01;;;;;;;3.50;2.10;;;;;;;14.28;45.89;98279.06;7028149;28;20526;-77
2022/12/29 02:50:27;;;;;;;4.50;2.00;;;;;;;14.29;46.03;98278.78;7028015;28;20228;-77
2022/12/29 02:57:35;;;;;;;3.53;2.50;;;;;;;14.78;44.70;98247.44;7016365;28;20199;-76
2022/12/29 03:01:07;;;;;;;2.70;2.23;;;;;;;14.71;45.23;98280.16;7028108;28;20582;-77
2022/12/29 03:04:36;;;;;;;2.13;2.00;;;;;;;14.45;45.25;98259.03;7028134;28;20185;-76
2022/12/29 03:08:05;;;;;;;2.33;2.10;;;;;;;14.85;44.84;98269.81;7027492;28;20718;-77
2022/12/29 03:19:03;;;;;;;4.13;2.30;;;;;;;14.52;45.02;98264.34;6998343;28;20206;-76
2022/12/29 03:22:31;;;;;;;4.03;2.33;;;;;;;14.59;44.49;98265.84;7025886;28;20285;-76
2022/12/29 03:25:57;;;;;;;2.87;2.00;;;;;;;15.12;43.25;98260.78;7026976;28;20208;-77
2022/12/29 03:29:19;;;;;;;1.97;1.83;;;;;;;15.66;42.16;98262.75;7027604;28;20350;-77
2022/12/29 03:32:43;;;;;;;2.20;2.00;;;;;;;15.15;43.10;98252.13;7027421;28;20347;-76
2022/12/29 03:36:08;;;;;;;3.47;1.90;;;;;;;15.88;41.54;98241.84;7026586;28;20291;-77
2022/12/29 03:39:29;;;;;;;2.27;2.03;;;;;;;15.73;41.96;98228.03;7027687;28;20285;-77
2022/12/29 03:42:54;;;;;;;4.63;2.50;;;;;;;15.68;42.34;98238.84;7027339;28;20288;-77
2022/12/29 03:46:15;;;;;;;2.10;1.83;;;;;;;15.40;42.67;98238.16;7028140;28;20726;-77
2022/12/29 03:49:37;;;;;;;2.97;2.13;;;;;;;15.63;41.94;98232.53;7032735;28;20358;-76
2022/12/29 03:52:58;;;;;;;2.00;1.90;;;;;;;15.38;42.11;98237.56;7044446;28;20261;-76
2022/12/29 03:56:20;;;;;;;2.10;1.90;;;;;;;16.00;41.28;98220.78;7060478;28;20223;-77
2022/12/29 03:59:43;;;;;;;2.57;1.93;;;;;;;16.32;40.73;98209.97;7084672;27;20696;-77
2022/12/29 04:03:04;;;;;;;4.97;2.00;;;;;;;15.96;41.36;98216.09;7089544;27;20737;-76
2022/12/29 04:06:26;;;;;;;2.07;1.87;;;;;;;15.96;41.56;98203.31;7088633;27;20341;-76
2022/12/29 04:09:47;;;;;;;3.40;2.00;;;;;;;15.80;42.03;98222.44;7089331;27;20768;-77
2022/12/29 04:13:09;;;;;;;3.90;2.10;;;;;;;15.54;41.96;98226.69;7089045;27;20262;-77
2022/12/29 04:16:33;;;;;;;10.40;2.03;;;;;;;16.18;41.03;98234.06;7088331;27;20319;-78
2022/12/29 04:20:59;;;;;;;2.40;2.20;;;;;;;16.15;41.09;98217.44;7088196;27;20224;-77
2022/12/29 04:23:38;;;;;;;6.40;2.20;;;;;;;16.43;40.53;98228.09;7087248;27;20247;-77
2022/12/29 04:27:00;;;;;;;2.00;1.80;;;;;;;15.90;41.67;98242.41;7087908;27;20203;-77
2022/12/29 04:30:21;;;;;;;2.57;2.00;;;;;;;16.23;41.07;98246.88;7088365;27;20920;-77
2022/12/29 04:33:44;;;;;;;2.53;1.80;;;;;;;16.17;41.24;98256.06;7088190;27;20256;-77
2022/12/29 04:37:06;;;;;;;2.63;2.00;;;;;;;15.72;42.24;98259.00;7088032;27;20350;-77
2022/12/29 04:40:27;;;;;;;4.10;1.97;;;;;;;15.82;42.47;98258.34;7088479;27;20700;-77
2022/12/29 04:43:49;;;;;;;2.30;1.90;;;;;;;15.59;43.05;98251.22;7063345;27;20296;-77
2022/12/29 04:47:10;;;;;;;2.70;2.27;;;;;;;15.36;43.77;98256.03;7059275;28;20292;-75
2022/12/29 04:50:33;;;;;;;2.53;2.13;;;;;;;15.98;42.78;98250.13;7059419;28;20227;-77
2022/12/29 04:53:54;;;;;;;2.83;1.80;;;;;;;16.08;42.64;98250.25;7059784;28;20584;-77
2022/12/29 04:57:16;;;;;;;3.27;2.00;;;;;;;16.03;42.85;98233.88;7058045;28;20213;-77
2022/12/29 05:00:37;;;;;;;3.00;2.03;;;;;;;16.47;42.22;98261.88;7059430;28;20234;-77
2022/12/29 05:03:59;;;;;;;3.93;2.10;;;;;;;15.80;43.58;98244.19;7049034;28;20203;-77
2022/12/29 05:07:22;;;;;;;2.00;1.80;;;;;;;16.02;43.40;98255.88;7056267;28;20566;-77
2022/12/29 05:10:45;;;;;;;2.43;2.20;;;;;;;16.23;42.86;98253.13;7058022;28;20253;-77
2022/12/29 05:14:07;;;;;;;2.07;1.93;;;;;;;16.13;42.88;98247.59;7058404;28;20681;-77
2022/12/29 05:17:28;;;;;;;2.17;2.00;;;;;;;16.12;42.92;98248.69;7057889;28;20261;-76
2022/12/29 05:20:50;;;;;;;2.27;1.93;;;;;;;16.12;42.54;98245.13;7053988;28;20864;-76
2022/12/29 05:24:13;;;;;;;3.17;1.93;;;;;;;16.34;42.12;98227.69;7058736;28;20608;-76
2022/12/29 05:27:34;;;;;;;2.03;1.70;;;;;;;15.88;43.11;98236.41;7057575;28;20256;-78
2022/12/29 05:30:56;;;;;;;2.57;2.10;;;;;;;15.90;42.99;98236.97;7058357;28;20782;-76
2022/12/29 05:34:17;;;;;;;5.20;2.70;;;;;;;16.11;42.71;98229.88;7058739;28;20285;-76
2022/12/29 05:37:39;;;;;;;2.87;1.80;;;;;;;15.73;43.39;98208.19;7057244;28;20202;-76
2022/12/29 05:41:02;;;;;;;1.90;1.80;;;;;;;15.69;43.29;98196.19;7058423;28;20283;-76
2022/12/29 05:44:23;;;;;;;2.33;2.13;;;;;;;16.13;42.55;98198.63;7058021;28;20206;-77
2022/12/29 05:47:45;;;;;;;5.73;2.33;;;;;;;15.79;43.16;98229.75;7057382;28;20209;-76
2022/12/29 05:51:06;;;;;;;2.37;1.93;;;;;;;15.95;43.22;98228.03;7058225;28;20233;-77
2022/12/29 05:54:30;;;;;;;2.30;2.10;;;;;;;15.65;43.40;98208.63;7052221;28;20299;-76
2022/12/29 05:57:53;;;;;;;2.47;1.67;;;;;;;15.96;43.02;98207.94;7057225;28;20563;-76
2022/12/29 06:01:15;;;;;;;2.07;1.90;;;;;;;16.19;42.36;98213.94;7029130;28;20271;-77
2022/12/29 06:04:36;;;;;;;1.77;1.67;;;;;;;15.98;42.90;98224.84;7029241;28;20551;-77
2022/12/29 06:07:58;;;;;;;3.20;1.90;;;;;;;16.32;41.86;98218.13;7028807;28;20207;-76
2022/12/29 06:11:19;;;;;;;2.20;1.90;;;;;;;16.33;41.77;98222.53;7027784;28;20274;-76
2022/12/29 06:14:42;;;;;;;4.40;2.10;;;;;;;16.29;41.63;98210.50;7028945;28;20229;-77
2022/12/29 06:18:04;;;;;;;2.17;1.70;;;;;;;16.16;41.60;98208.19;7028314;28;20288;-77
2022/12/29 06:21:27;;;;;;;4.70;2.13;;;;;;;15.84;42.00;98190.94;7028021;28;20231;-77
2022/12/29 06:24:49;;;;;;;4.03;2.10;;;;;;;15.64;42.74;98183.34;7031419;28;20191;-77
2022/12/29 06:28:11;;;;;;;2.80;2.50;;;;;;;15.79;42.53;98194.41;7034507;28;20290;-75
2022/12/29 06:31:34;;;;;;;2.10;1.90;;;;;;;15.81;42.20;98196.88;7030600;28;20228;-77
2022/12/29 06:34:55;;;;;;;3.60;2.20;;;;;;;16.12;42.01;98207.88;7028904;28;20699;-77
2022/12/29 06:38:17;;;;;;;3.33;2.20;;;;;;;16.19;41.68;98194.91;7029176;28;20266;-77
2022/12/29 06:41:38;;;;;;;2.87;2.27;;;;;;;16.30;41.29;98212.16;7028773;28;20365;-77
2022/12/29 06:45:00;;;;;;;3.17;2.20;;;;;;;16.18;41.17;98206.03;7027561;28;20210;-77
2022/12/29 06:48:23;;;;;;;2.07;1.87;;;;;;;16.17;41.24;98209.81;7027750;28;20661;-76
2022/12/29 06:51:45;;;;;;;2.70;2.07;;;;;;;16.00;41.52;98192.75;7027526;28;20226;-77
2022/12/29 06:55:07;;;;;;;2.13;1.93;;;;;;;15.54;42.69;98196.81;7027039;28;20447;-77
2022/12/29 06:58:28;;;;;;;2.17;1.97;;;;;;;15.25;43.27;98198.00;7028176;28;20273;-76
2022/12/29 07:01:50;;;;;;;2.07;1.87;;;;;;;15.61;42.90;98211.03;7027716;28;20230;-77
2022/12/29 07:05:13;;;;;;;3.87;2.30;;;;;;;15.59;43.08;98182.47;7028469;28;20292;-76
2022/12/29 07:08:35;;;;;;;1.90;1.80;;;;;;;15.54;43.18;98183.22;7028734;28;20293;-77
2022/12/29 07:11:57;;;;;;;3.43;2.20;;;;;;;15.65;42.85;98195.88;7028659;28;20326;-77
2022/12/29 07:15:18;;;;;;;2.83;1.93;;;;;;;15.64;42.91;98202.34;7037069;28;20845;-77
2022/12/29 07:18:40;;;;;;;2.20;2.00;;;;;;;15.77;42.90;98193.03;7055096;28;20278;-77
2022/12/29 07:22:03;;;;;;;2.30;1.90;;;;;;;16.06;42.32;98197.19;7054364;28;20825;-77
2022/12/29 07:25:24;;;;;;;2.60;2.10;;;;;;;15.73;42.96;98197.31;7056746;28;20645;-76
2022/12/29 07:28:46;;;;;;;2.20;2.00;;;;;;;15.62;43.02;98211.88;7056098;28;20804;-77
2022/12/29 07:32:08;;;;;;;2.87;1.87;;;;;;;15.99;42.59;98202.00;7049730;28;20718;-76
2022/12/29 07:35:30;;;;;;;3.90;2.27;;;;;;;15.76;42.96;98204.97;7033786;28;20247;-77
2022/12/29 07:38:53;;;;;;;3.77;2.27;;;;;;;16.07;42.60;98210.53;7029324;28;20210;-76
2022/12/29 07:42:14;;;;;;;2.13;1.90;;;;;;;16.12;42.49;98213.31;7028507;28;20329;-76
2022/12/29 07:45:36;;;;;;;2.73;1.97;;;;;;;16.03;42.26;98223.00;7027437;28;20263;-77
2022/12/29 07:48:57;;;;;;;2.87;2.57;;;;;;;15.84;42.89;98221.66;7029295;28;20278;-77
2022/12/29 07:52:18;;;;;;;3.20;2.30;;;;;;;16.17;42.48;98212.56;7029259;28;20228;-76
2022/12/29 07:55:41;;;;;;;5.80;1.87;;;;;;;16.45;41.96;98221.31;7028120;28;20643;-76
2022/12/29 07:59:03;;;;;;;3.20;2.00;;;;;;;16.04;42.58;98240.94;7028881;28;20360;-76
2022/12/29 08:02:25;;;;;;;2.17;1.97;;;;;;;16.07;42.65;98228.75;7028961;28;20348;-78
2022/12/29 08:05:47;;;;;;;2.37;1.77;;;;;;;16.35;42.29;98244.84;7028222;28;20230;-77
2022/12/29 08:09:09;;;;;;;1.93;1.80;;;;;;;16.29;42.66;98221.38;7031939;28;20278;-81
2022/12/29 08:12:32;;;;;;;2.87;1.87;;;;;;;16.36;42.31;98243.75;7029706;28;20211;-75
2022/12/29 08:15:53;;;;;;;2.27;2.03;;;;;;;16.84;41.84;98244.59;7028578;28;20362;-77
2022/12/29 08:19:15;;;;;;;3.30;2.20;;;;;;;16.56;41.88;98241.28;7040060;28;20297;-76
2022/12/29 08:22:37;;;;;;;2.60;1.97;;;;;;;16.54;42.02;98219.78;7037384;28;20249;-77
2022/12/29 08:25:59;;;;;;;2.03;1.93;;;;;;;16.71;41.73;98249.63;7052667;28;20292;-77
2022/12/29 08:29:22;;;;;;;2.57;1.97;;;;;;;16.91;41.68;98269.69;7028663;28;20680;-76
2022/12/29 08:32:43;;;;;;;2.90;2.40;;;;;;;16.95;41.57;98235.44;7029679;28;20208;-77
2022/12/29 08:36:07;;;;;;;5.37;2.23;;;;;;;16.80;41.72;98256.25;7032978;28;20228;-77
2022/12/29 08:39:28;;;;;;;2.53;1.87;;;;;;;16.92;41.84;98240.56;7033470;28;20261;-77
2022/12/29 08:42:50;;;;;;;2.53;1.90;;;;;;;16.90;41.73;98254.44;7033891;28;20256;-76
2022/12/29 08:46:12;;;;;;;2.37;2.17;;;;;;;16.93;41.30;98253.91;7056052;28;20291;-77
2022/12/29 08:49:34;;;;;;;3.63;2.07;;;;;;;16.80;40.83;98226.31;7051144;28;20218;-77
2022/12/29 08:52:55;;;;;;;2.03;1.73;;;;;;;17.03;41.83;98234.09;7053995;27;20298;-77
2022/12/29 08:56:17;;;;;;;1.97;1.80;;;;;;;17.28;41.11;98237.84;7041221;28;20225;-77
2022/12/29 08:59:38;;;;;;;1.83;1.73;;;;;;;17.00;41.49;98259.97;7032430;28;20261;-77
2022/12/29 09:03:01;;;;;;;2.13;1.90;;;;;;;17.11;40.76;98253.50;7031678;28;20207;-77
2022/12/29 09:06:23;;;;;;;2.90;1.80;;;;;;;17.52;40.41;98260.94;7037387;28;20242;-78
2022/12/29 09:09:44;;;;;;;3.70;1.93;;;;;;;17.36;40.13;98272.81;7033352;28;20303;-77
2022/12/29 09:13:06;;;;;;;2.40;1.73;;;;;;;17.54;39.91;98277.88;7035746;28;20266;-77
2022/12/29 09:16:27;;;;;;;2.50;1.90;;;;;;;17.93;39.27;98276.47;7045505;28;20600;-76
2022/12/29 09:19:50;;;;;;;2.37;1.90;;;;;;;17.51;39.63;98272.13;7047617;28;20235;-76
2022/12/29 09:23:12;;;;;;;2.13;1.90;;;;;;;17.67;39.35;98277.41;7058479;28;20262;-75
2022/12/29 09:26:33;;;;;;;3.17;1.90;;;;;;;17.51;39.42;98285.75;7045194;28;20199;-76
2022/12/29 09:29:55;;;;;;;2.73;2.13;;;;;;;17.35;40.05;98281.25;7045327;28;20295;-76
2022/12/29 09:33:17;;;;;;;3.20;1.90;;;;;;;17.51;39.91;98289.28;7031932;28;20574;-76
2022/12/29 09:36:40;;;;;;;4.63;2.00;;;;;;;17.40;40.04;98292.22;7034822;28;20229;-76
2022/12/29 09:40:02;;;;;;;1.70;1.57;;;;;;;17.18;40.23;98289.56;7032181;28;20228;-76
2022/12/29 09:43:44;;;;;;;2.93;1.90;;;;;;;17.90;39.04;98276.19;7057990;27;20798;-76
2022/12/29 09:47:09;;;;;;;3.37;1.90;;;;;;;17.88;38.83;98249.16;7057884;27;20208;-76
2022/12/29 09:50:32;;;;;;;2.37;1.93;;;;;;;17.78;38.87;98283.75;7062672;27;20634;-76
2022/12/29 09:53:58;;;;;;;2.00;1.80;;;;;;;17.50;39.62;98284.09;7031340;28;20205;-76
2022/12/29 09:57:23;;;;;;;3.07;1.63;;;;;;;16.99;40.93;98290.19;7031224;28;20299;-76
2022/12/29 10:00:52;;;;;;;3.93;1.93;;;;;;;16.81;41.30;98280.47;7038141;28;20253;-76
2022/12/29 10:04:13;;;;;;;2.33;1.80;;;;;;;16.86;41.43;98285.97;7030616;28;20197;-76
2022/12/29 10:07:41;;;;;;;2.77;2.23;;;;;;;17.15;40.78;98279.16;7029733;28;20207;-77
2022/12/29 10:11:14;;;;;;;3.80;3.37;;;;;;;17.73;40.10;98278.25;7054271;28;20356;-76
2022/12/29 10:14:48;;;;;;;4.33;2.30;;;;;;;17.74;40.27;98275.28;7055876;28;20610;-77
2022/12/29 10:18:20;;;;;;;1.73;1.63;;;;;;;17.34;40.88;98293.22;7032397;28;20234;-77
2022/12/29 10:21:51;;;;;;;4.10;2.00;;;;;;;17.82;40.43;98271.25;7057766;28;20307;-76
2022/12/29 10:25:16;;;;;;;2.50;2.20;;;;;;;17.54;40.50;98263.41;7058564;28;20193;-76
2022/12/29 10:28:43;;;;;;;3.50;2.10;;;;;;;17.45;41.13;98268.53;7049025;28;20565;-76
2022/12/29 10:32:07;;;;;;;2.50;2.27;;;;;;;17.30;41.64;98284.75;7058884;28;20740;-76
2022/12/29 10:35:33;;;;;;;2.47;1.93;;;;;;;17.69;41.02;98290.78;7044759;27;20288;-77
2022/12/29 10:39:03;;;;;;;5.40;2.27;;;;;;;17.87;40.94;98291.16;7039194;28;20259;-76
2022/12/29 10:42:28;;;;;;;2.60;2.40;;;;;;;17.35;41.98;98282.03;7055977;28;20219;-76
2022/12/29 10:45:52;;;;;;;2.37;2.10;;;;;;;17.61;41.34;98270.28;7029516;28;20310;-76
2022/12/29 10:49:16;;;;;;;2.67;2.17;;;;;;;17.69;41.71;98286.13;7029216;28;20288;-76
2022/12/29 10:52:39;;;;;;;2.50;1.90;;;;;;;16.95;42.79;98251.75;7056424;28;20271;-76
2022/12/29 10:56:01;;;;;;;2.77;1.80;;;;;;;17.67;42.53;98269.25;7056850;28;20294;-77
2022/12/29 10:59:25;;;;;;;8.27;2.07;;;;;;;18.37;40.31;98271.53;7043220;28;20287;-76
2022/12/29 11:02:59;;;;;;;2.77;2.00;;;;;;;17.53;42.17;98250.88;7030204;28;20283;-76
2022/12/29 11:06:25;;;;;;;2.97;2.13;;;;;;;17.80;41.51;98255.13;7045241;28;20208;-76
2022/12/29 11:09:47;;;;;;;3.27;2.27;;;;;;;18.65;40.07;98268.34;7050476;28;20319;-76
2022/12/29 11:13:14;;;;;;;2.77;1.90;;;;;;;18.90;39.31;98262.91;7058019;28;20696;-77
2022/12/29 11:16:36;;;;;;;2.30;2.10;;;;;;;18.24;40.38;98250.16;7036431;28;20833;-76
2022/12/29 11:19:59;;;;;;;4.23;1.93;;;;;;;17.60;41.91;98265.09;7049861;28;20220;-76
2022/12/29 11:23:27;;;;;;;3.13;2.10;;;;;;;17.88;41.65;98276.44;7053126;28;20341;-76
2022/12/29 11:26:52;;;;;;;2.30;2.10;;;;;;;17.87;41.58;98263.88;7056922;28;20203;-76
2022/12/29 11:30:24;;;;;;;1.70;1.60;;;;;;;17.72;41.81;98276.63;7041401;28;20227;-76
2022/12/29 11:33:46;;;;;;;2.77;2.17;;;;;;;17.97;41.77;98274.03;7049487;28;20208;-76
2022/12/29 11:37:12;;;;;;;2.37;1.80;;;;;;;17.69;42.13;98275.22;7048396;28;20305;-76
2022/12/29 11:40:39;;;;;;;2.40;1.70;;;;;;;17.80;42.10;98251.59;7047860;28;20275;-77
2022/12/29 11:44:03;;;;;;;2.00;1.77;;;;;;;17.88;42.19;98281.09;7062177;28;20191;-77
2022/12/29 11:47:30;;;;;;;2.17;1.93;;;;;;;18.34;41.28;98274.78;7039212;28;20254;-78
2022/12/29 11:50:54;;;;;;;2.70;1.93;;;;;;;17.33;42.96;98276.03;7055757;28;20219;-76
2022/12/29 11:54:22;;;;;;;4.23;1.87;;;;;;;17.19;44.28;98271.28;7057950;28;20206;-83
2022/12/29 11:57:44;;;;;;;4.77;2.10;;;;;;;17.80;44.02;98281.59;7053252;28;20295;-76
2022/12/29 12:01:08;;;;;;;3.60;2.00;;;;;;;17.45;44.25;98289.53;7050944;28;20306;-79
2022/12/29 12:04:31;;;;;;;2.07;1.83;;;;;;;17.52;44.33;98285.47;7036189;28;20290;-76
2022/12/29 12:07:57;;;;;;;7.47;4.30;;;;;;;17.29;44.62;98280.34;7045418;28;20283;-77
2022/12/29 12:11:21;;;;;;;8.43;2.03;;;;;;;17.33;44.51;98286.13;7060258;28;20215;-77
2022/12/29 12:14:49;;;;;;;2.80;2.10;;;;;;;17.41;44.27;98263.88;7045054;28;20325;-77
2022/12/29 12:18:13;;;;;;;2.13;1.90;;;;;;;18.00;44.06;98276.25;7059282;28;20294;-77
2022/12/29 12:21:39;;;;;;;3.03;1.87;;;;;;;18.13;44.07;98286.66;7062753;28;20307;-77
2022/12/29 12:25:05;;;;;;;3.73;2.30;;;;;;;17.98;43.74;98286.59;7049685;28;20202;-77
2022/12/29 12:28:35;;;;;;;2.93;1.90;;;;;;;17.81;43.49;98253.22;7054182;28;20763;-77
2022/12/29 12:32:00;;;;;;;4.10;2.00;;;;;;;18.02;43.74;98285.81;7054294;28;20270;-76
2022/12/29 12:35:24;;;;;;;4.40;1.87;;;;;;;17.01;45.23;98288.03;7062087;27;20301;-77
2022/12/29 12:38:51;;;;;;;2.70;2.00;;;;;;;17.54;44.64;98277.88;7062655;28;20567;-79
2022/12/29 12:42:27;;;;;;;3.63;2.00;;;;;;;17.40;44.84;98270.41;7062793;28;20280;-76
2022/12/29 12:45:59;;;;;;;2.17;1.97;;;;;;;17.57;44.66;98265.63;7047400;28;20797;-77
2022/12/29 12:49:33;;;;;;;5.70;2.23;;;;;;;17.43;44.89;98254.34;7048445;28;20200;-77
2022/12/29 12:53:20;;;;;;;2.30;1.90;;;;;;;17.80;45.02;98257.06;7054383;28;20203;-77
2022/12/29 12:56:50;;;;;;;2.60;2.13;;;;;;;17.86;45.57;98256.00;7061206;28;20690;-77
2022/12/29 13:00:17;;;;;;;2.73;2.03;;;;;;;17.10;47.67;98259.25;7037191;28;20372;-76
2022/12/29 13:03:53;;;;;;;3.03;2.00;;;;;;;17.21;47.34;98253.59;7050801;28;20296;-76
2022/12/29 13:07:23;;;;;;;4.00;2.07;;;;;;;17.64;46.67;98253.38;7060790;27;20278;-77
2022/12/29 13:10:52;;;;;;;2.47;2.27;;;;;;;17.31;47.68;98256.41;7055402;28;20316;-76
2022/12/29 13:14:21;;;;;;;2.40;2.20;;;;;;;17.29;47.89;98241.41;7063330;28;20211;-76
2022/12/29 13:17:47;;;;;;;2.50;2.30;;;;;;;17.66;46.81;98247.69;7052979;28;20217;-77
2022/12/29 13:21:15;;;;;;;2.43;2.23;;;;;;;17.70;47.27;98249.59;7062405;28;20235;-76
2022/12/29 13:24:47;;;;;;;2.67;2.13;;;;;;;18.14;46.48;98250.09;7060905;28;20224;-76
2022/12/29 13:28:13;;;;;;;3.43;2.10;;;;;;;18.07;46.05;98227.72;7052426;28;20245;-76
2022/12/29 13:31:39;;;;;;;3.50;2.07;;;;;;;18.10;46.26;98240.84;7059581;28;20314;-76
2022/12/29 13:35:11;;;;;;;4.20;2.13;;;;;;;17.43;47.58;98238.00;7048372;28;20291;-77
2022/12/29 13:38:37;;;;;;;2.13;1.97;;;;;;;17.21;47.92;98231.00;7056484;28;20278;-76
2022/12/29 13:42:00;;;;;;;1.80;1.70;;;;;;;17.55;47.44;98243.25;7052130;28;20250;-76
2022/12/29 13:45:22;;;;;;;3.90;2.50;;;;;;;16.77;48.62;98234.97;7050468;28;20272;-77
2022/12/29 13:48:47;;;;;;;2.20;2.00;;;;;;;16.50;48.72;98240.41;7046537;28;20707;-76
2022/12/29 13:52:14;;;;;;;2.27;2.00;;;;;;;16.53;48.82;98225.47;7059206;28;20224;-76
2022/12/29 13:55:42;;;;;;;3.43;2.00;;;;;;;16.89;48.09;98235.63;7059681;28;20678;-76
2022/12/29 13:59:10;;;;;;;2.07;1.80;;;;;;;17.12;47.66;98238.84;7044682;28;20301;-77
2022/12/29 14:02:42;;;;;;;2.23;1.87;;;;;;;16.89;48.09;98244.63;7031618;28;20232;-76
2022/12/29 14:06:13;;;;;;;4.57;2.00;;;;;;;17.35;47.31;98248.53;7054652;28;20257;-76
2022/12/29 14:09:43;;;;;;;2.43;2.23;;;;;;;17.30;47.03;98249.31;7057379;28;20315;-76
2022/12/29 14:13:11;;;;;;;3.27;2.10;;;;;;;17.60;46.86;98238.66;7053084;28;20213;-76
2022/12/29 14:16:34;;;;;;;5.10;4.20;;;;;;;17.72;46.43;98239.28;7030195;28;20729;-76
2022/12/29 14:19:56;;;;;;;5.43;4.10;;;;;;;17.67;46.59;98241.13;7051534;28;20230;-76
2022/12/29 14:23:27;;;;;;;4.67;2.40;;;;;;;18.02;46.17;98235.88;7036518;28;20216;-76
2022/12/29 14:26:49;;;;;;;3.83;2.10;;;;;;;17.85;46.52;98246.16;7031031;27;20288;-76
2022/12/29 14:30:58;;;;;;;3.60;2.27;;;;;;;17.70;46.84;98254.25;7046321;28;20714;-76
2022/12/29 14:34:32;;;;;;;4.57;2.10;;;;;;;18.04;46.15;98255.53;7030386;28;20335;-76
2022/12/29 14:38:07;;;;;;;3.77;2.33;;;;;;;17.69;46.98;98239.78;7029869;28;20266;-76
2022/12/29 14:41:39;;;;;;;2.60;2.13;;;;;;;17.53;47.37;98232.63;7031672;28;20279;-77
2022/12/29 14:45:04;;;;;;;2.33;2.10;;;;;;;17.98;46.35;98241.03;7032069;28;20203;-76
2022/12/29 14:48:35;;;;;;;3.77;2.10;;;;;;;17.39;47.15;98242.31;7030236;28;20346;-76
2022/12/29 14:52:08;;;;;;;2.30;2.10;;;;;;;17.85;46.63;98255.16;7051375;28;20360;-77
2022/12/29 14:55:37;;;;;;;2.20;2.00;;;;;;;17.81;46.70;98264.16;7045718;28;20285;-77
2022/12/29 14:59:00;;;;;;;3.50;2.70;;;;;;;17.31;47.74;98261.88;7035120;28;20231;-75
2022/12/29 15:02:25;;;;;;;2.60;2.40;;;;;;;16.94;48.83;98255.56;7052078;28;20266;-76
2022/12/29 15:05:48;;;;;;;2.87;2.30;;;;;;;17.68;47.07;98240.88;7042654;28;20200;-76
2022/12/29 15:09:20;;;;;;;4.87;2.60;;;;;;;17.70;46.69;98246.06;7053868;28;20254;-76
2022/12/29 15:12:45;;;;;;;5.27;2.50;;;;;;;17.61;47.02;98250.38;7058863;28;20194;-75
2022/12/29 15:16:22;;;;;;;4.63;2.43;;;;;;;17.64;46.84;98249.88;7036453;28;20290;-76
2022/12/29 15:19:43;;;;;;;2.43;2.23;;;;;;;17.51;47.20;98258.50;7044975;27;20357;-77
2022/12/29 15:23:10;;;;;;;2.53;2.33;;;;;;;17.61;46.94;98255.81;7066555;27;20247;-76
2022/12/29 15:26:40;;;;;;;3.27;2.40;;;;;;;17.47;47.15;98243.75;7068773;27;20340;-76
2022/12/29 15:30:03;;;;;;;3.50;2.47;;;;;;;17.28;47.53;98247.94;7047284;27;20235;-76
2022/12/29 15:33:27;;;;;;;3.70;2.67;;;;;;;17.20;48.09;98253.84;7047887;27;20280;-75
2022/12/29 15:36:51;;;;;;;5.40;3.17;;;;;;;17.21;48.04;98255.53;7055004;27;20593;-76
2022/12/29 15:40:23;;;;;;;3.67;3.00;;;;;;;17.18;47.99;98265.03;7058195;28;20225;-76
2022/12/29 15:43:54;;;;;;;3.63;2.90;;;;;;;17.01;48.19;98267.06;7056809;28;20197;-76
2022/12/29 15:47:18;;;;;;;3.70;3.13;;;;;;;16.69;49.10;98260.75;7056821;28;20210;-76
2022/12/29 15:50:42;;;;;;;4.13;3.23;;;;;;;16.24;49.92;98270.28;7056320;28;20233;-75
2022/12/29 15:54:04;;;;;;;4.20;2.17;;;;;;;16.36;49.04;98260.94;7028003;28;20290;-76
2022/12/29 15:57:27;;;;;;;2.60;2.40;;;;;;;16.87;48.01;98274.00;7038804;28;20222;-76
2022/12/29 16:00:52;;;;;;;4.00;2.17;;;;;;;16.66;48.28;98284.94;7045931;28;20239;-76
2022/12/29 16:04:15;;;;;;;4.93;2.60;;;;;;;16.54;48.29;98320.47;7051254;27;20220;-76
2022/12/29 16:07:36;;;;;;;3.03;2.50;;;;;;;16.27;48.96;98332.38;7050194;28;20199;-76
2022/12/29 16:10:58;;;;;;;6.30;3.23;;;;;;;16.12;49.99;98337.59;7036088;28;20342;-76
2022/12/29 16:14:21;;;;;;;5.60;3.20;;;;;;;15.41;52.12;98341.16;7046483;28;20580;-76
2022/12/29 16:17:48;;;;;;;6.33;3.30;;;;;;;15.23;53.55;98343.25;7051328;28;20593;-76
2022/12/29 16:21:17;;;;;;;4.47;3.27;;;;;;;15.88;52.88;98345.16;7039993;28;20230;-76
2022/12/29 16:24:40;;;;;;;5.37;3.23;;;;;;;15.62;53.18;98355.91;7031196;28;20263;-76
2022/12/29 16:28:03;;;;;;;4.23;2.77;;;;;;;15.80;53.49;98361.88;7074407;28;20541;-75
2022/12/29 16:31:26;;;;;;;3.17;2.40;;;;;;;15.58;54.18;98357.44;7075756;27;20287;-75
2022/12/29 16:38:21;;;;;;;2.60;2.30;;;;;;;15.81;54.10;98352.63;1525176;26;20232;-78
2022/12/29 16:41:43;;;;;;;3.87;3.07;;;;;;;15.25;54.20;98281.34;6941622;28;20226;-78